sensor_id;sensor_type;location;lat;lon;timestamp;P1;durP1;ratioP1;P2;durP2;ratioP2
65053;SDS011;51639;47.828;35.038;2023-02-19T00:14:30;6.57;;;2.57;;
65053;SDS011;51639;47.828;35.038;2023-02-19T00:29:32;12.50;;;4.37;;
65053;SDS011;51639;47.828;35.038;2023-02-19T00:44:34;3.37;;;2.40;;
65053;SDS011;51639;47.828;35.038;2023-02-19T00:59:36;7.03;;;3.27;;
65053;SDS011;51639;47.828;35.038;2023-02-19T01:14:38;4.57;;;2.83;;
65053;SDS011;51639;47.828;35.038;2023-02-19T01:29:41;5.83;;;2.83;;
65053;SDS011;51639;47.828;35.038;2023-02-19T01:59:48;5.07;;;2.90;;
65053;SDS011;51639;47.828;35.038;2023-02-19T02:14:55;3.23;;;2.27;;
65053;SDS011;51639;47.828;35.038;2023-02-19T02:45:24;15.60;;;5.50;;
65053;SDS011;51639;47.828;35.038;2023-02-19T03:00:38;11.43;;;4.27;;
65053;SDS011;51639;47.828;35.038;2023-02-19T03:16:05;10.97;;;3.50;;
65053;SDS011;51639;47.828;35.038;2023-02-19T03:31:31;7.23;;;3.57;;
65053;SDS011;51639;47.828;35.038;2023-02-19T04:17:41;6.17;;;2.50;;
65053;SDS011;51639;47.828;35.038;2023-02-19T04:32:52;2.73;;;1.67;;
65053;SDS011;51639;47.828;35.038;2023-02-19T04:47:55;6.47;;;2.23;;
65053;SDS011;51639;47.828;35.038;2023-02-19T05:02:59;3.63;;;1.87;;
65053;SDS011;51639;47.828;35.038;2023-02-19T05:18:02;3.27;;;1.93;;
65053;SDS011;51639;47.828;35.038;2023-02-19T05:33:04;6.63;;;2.93;;
65053;SDS011;51639;47.828;35.038;2023-02-19T05:48:06;4.77;;;3.30;;
65053;SDS011;51639;47.828;35.038;2023-02-19T06:03:08;8.63;;;3.47;;
65053;SDS011;51639;47.828;35.038;2023-02-19T06:18:10;6.67;;;3.63;;
65053;SDS011;51639;47.828;35.038;2023-02-19T06:33:12;4.30;;;2.83;;
65053;SDS011;51639;47.828;35.038;2023-02-19T06:48:14;7.10;;;3.50;;
65053;SDS011;51639;47.828;35.038;2023-02-19T07:03:16;8.83;;;3.53;;
65053;SDS011;51639;47.828;35.038;2023-02-19T07:18:18;8.60;;;4.40;;
65053;SDS011;51639;47.828;35.038;2023-02-19T07:33:20;7.30;;;4.50;;
65053;SDS011;51639;47.828;35.038;2023-02-19T07:48:22;5.80;;;3.20;;
65053;SDS011;51639;47.828;35.038;2023-02-19T08:03:24;7.30;;;3.73;;
65053;SDS011;51639;47.828;35.038;2023-02-19T08:18:27;5.50;;;2.93;;
65053;SDS011;51639;47.828;35.038;2023-02-19T08:33:31;6.67;;;3.43;;
65053;SDS011;51639;47.828;35.038;2023-02-19T08:48:33;8.63;;;3.67;;
65053;SDS011;51639;47.828;35.038;2023-02-19T09:03:35;7.03;;;3.53;;
65053;SDS011;51639;47.828;35.038;2023-02-19T09:18:37;9.47;;;4.80;;
65053;SDS011;51639;47.828;35.038;2023-02-19T09:33:43;9.60;;;4.00;;
65053;SDS011;51639;47.828;35.038;2023-02-19T09:48:46;8.73;;;3.87;;
65053;SDS011;51639;47.828;35.038;2023-02-19T10:03:48;5.13;;;2.87;;
65053;SDS011;51639;47.828;35.038;2023-02-19T10:18:51;9.13;;;2.70;;
65053;SDS011;51639;47.828;35.038;2023-02-19T10:33:55;9.00;;;3.23;;
65053;SDS011;51639;47.828;35.038;2023-02-19T10:49:01;7.27;;;3.20;;
65053;SDS011;51639;47.828;35.038;2023-02-19T11:04:16;4.87;;;2.47;;
65053;SDS011;51639;47.828;35.038;2023-02-19T11:34:28;5.97;;;2.20;;
65053;SDS011;51639;47.828;35.038;2023-02-19T12:20:34;6.90;;;2.10;;
65053;SDS011;51639;47.828;35.038;2023-02-19T12:51:16;3.87;;;1.60;;
65053;SDS011;51639;47.828;35.038;2023-02-19T13:06:25;5.50;;;1.73;;
65053;SDS011;51639;47.828;35.038;2023-02-19T13:21:54;4.70;;;1.87;;
65053;SDS011;51639;47.828;35.038;2023-02-19T13:37:30;5.70;;;2.60;;
65053;SDS011;51639;47.828;35.038;2023-02-19T13:52:36;6.87;;;2.80;;
65053;SDS011;51639;47.828;35.038;2023-02-19T14:07:50;7.47;;;2.63;;
65053;SDS011;51639;47.828;35.038;2023-02-19T14:23:00;8.07;;;2.73;;
65053;SDS011;51639;47.828;35.038;2023-02-19T14:38:17;13.73;;;4.33;;
65053;SDS011;51639;47.828;35.038;2023-02-19T14:53:22;11.87;;;3.63;;
65053;SDS011;51639;47.828;35.038;2023-02-19T15:08:30;6.73;;;2.50;;
65053;SDS011;51639;47.828;35.038;2023-02-19T15:23:36;15.17;;;5.97;;
65053;SDS011;51639;47.828;35.038;2023-02-19T15:38:39;4.13;;;2.50;;
65053;SDS011;51639;47.828;35.038;2023-02-19T15:53:45;5.73;;;2.23;;
65053;SDS011;51639;47.828;35.038;2023-02-19T16:23:59;5.87;;;2.07;;
65053;SDS011;51639;47.828;35.038;2023-02-19T16:54:08;7.70;;;2.47;;
65053;SDS011;51639;47.828;35.038;2023-02-19T17:09:10;7.60;;;3.27;;
65053;SDS011;51639;47.828;35.038;2023-02-19T17:24:12;6.17;;;3.50;;
65053;SDS011;51639;47.828;35.038;2023-02-19T17:39:15;9.57;;;3.37;;
65053;SDS011;51639;47.828;35.038;2023-02-19T17:54:17;10.57;;;4.03;;
65053;SDS011;51639;47.828;35.038;2023-02-19T18:09:19;11.67;;;4.53;;
65053;SDS011;51639;47.828;35.038;2023-02-19T18:24:23;9.43;;;5.00;;
65053;SDS011;51639;47.828;35.038;2023-02-19T18:39:24;13.77;;;5.10;;
65053;SDS011;51639;47.828;35.038;2023-02-19T18:54:27;10.37;;;5.07;;
65053;SDS011;51639;47.828;35.038;2023-02-19T19:09:30;11.70;;;4.50;;
65053;SDS011;51639;47.828;35.038;2023-02-19T19:24:32;7.53;;;4.97;;
65053;SDS011;51639;47.828;35.038;2023-02-19T19:39:34;13.03;;;4.57;;
65053;SDS011;51639;47.828;35.038;2023-02-19T19:54:36;16.97;;;8.33;;
65053;SDS011;51639;47.828;35.038;2023-02-19T20:09:40;11.77;;;5.33;;
65053;SDS011;51639;47.828;35.038;2023-02-19T20:24:42;14.13;;;5.23;;
65053;SDS011;51639;47.828;35.038;2023-02-19T20:39:44;8.87;;;4.40;;
65053;SDS011;51639;47.828;35.038;2023-02-19T20:54:46;8.60;;;4.00;;
65053;SDS011;51639;47.828;35.038;2023-02-19T21:09:48;10.67;;;3.63;;
65053;SDS011;51639;47.828;35.038;2023-02-19T21:24:51;13.90;;;5.37;;
65053;SDS011;51639;47.828;35.038;2023-02-19T21:39:54;14.53;;;5.43;;
65053;SDS011;51639;47.828;35.038;2023-02-19T21:54:56;10.13;;;4.90;;
65053;SDS011;51639;47.828;35.038;2023-02-19T22:09:58;16.73;;;7.90;;
65053;SDS011;51639;47.828;35.038;2023-02-19T22:25:00;13.20;;;6.20;;
65053;SDS011;51639;47.828;35.038;2023-02-19T22:40:02;12.87;;;6.80;;
65053;SDS011;51639;47.828;35.038;2023-02-19T22:55:04;19.97;;;7.57;;
65053;SDS011;51639;47.828;35.038;2023-02-19T23:10:06;15.03;;;6.43;;
65053;SDS011;51639;47.828;35.038;2023-02-19T23:25:09;12.53;;;5.53;;
65053;SDS011;51639;47.828;35.038;2023-02-19T23:40:11;11.77;;;6.70;;
65053;SDS011;51639;47.828;35.038;2023-02-19T23:55:13;15.83;;;7.03;;
